sensor_id;sensor_type;location;lat;lon;timestamp;temperature;humidity
72202;SHT30;60105;54.956;73.412;2023-05-10T00:00:32;4.00;50.64
72202;SHT30;60105;54.956;73.412;2023-05-10T00:03:34;4.07;49.51
72202;SHT30;60105;54.956;73.412;2023-05-10T00:06:35;4.01;50.40
72202;SHT30;60105;54.956;73.412;2023-05-10T00:09:36;4.00;50.30
72202;SHT30;60105;54.956;73.412;2023-05-10T00:13:21;4.13;50.64
72202;SHT30;60105;54.956;73.412;2023-05-10T00:16:23;4.18;49.98
72202;SHT30;60105;54.956;73.412;2023-05-10T00:19:24;4.33;49.66
72202;SHT30;60105;54.956;73.412;2023-05-10T00:22:25;4.42;49.67
72202;SHT30;60105;54.956;73.412;2023-05-10T00:25:26;4.51;49.68
72202;SHT30;60105;54.956;73.412;2023-05-10T00:28:28;4.61;48.78
72202;SHT30;60105;54.956;73.412;2023-05-10T00:31:31;4.62;48.95
72202;SHT30;60105;54.956;73.412;2023-05-10T00:34:32;4.52;49.42
72202;SHT30;60105;54.956;73.412;2023-05-10T00:37:33;4.62;50.01
72202;SHT30;60105;54.956;73.412;2023-05-10T00:40:36;4.71;49.66
72202;SHT30;60105;54.956;73.412;2023-05-10T00:43:43;4.82;49.80
72202;SHT30;60105;54.956;73.412;2023-05-10T00:46:44;4.88;49.79
72202;SHT30;60105;54.956;73.412;2023-05-10T00:49:46;4.93;50.24
72202;SHT30;60105;54.956;73.412;2023-05-10T00:53:21;4.93;49.31
72202;SHT30;60105;54.956;73.412;2023-05-10T00:56:22;5.05;48.84
72202;SHT30;60105;54.956;73.412;2023-05-10T00:59:26;5.12;49.33
72202;SHT30;60105;54.956;73.412;2023-05-10T01:02:27;5.15;49.89
72202;SHT30;60105;54.956;73.412;2023-05-10T01:05:28;5.19;48.74
72202;SHT30;60105;54.956;73.412;2023-05-10T01:08:32;5.23;48.43
72202;SHT30;60105;54.956;73.412;2023-05-10T01:11:35;5.30;48.96
72202;SHT30;60105;54.956;73.412;2023-05-10T01:14:37;5.37;49.30
72202;SHT30;60105;54.956;73.412;2023-05-10T01:18:21;5.41;48.75
72202;SHT30;60105;54.956;73.412;2023-05-10T01:21:38;5.50;49.23
72202;SHT30;60105;54.956;73.412;2023-05-10T01:28:33;5.67;48.37
72202;SHT30;60105;54.956;73.412;2023-05-10T01:35:17;6.03;46.84
72202;SHT30;60105;54.956;73.412;2023-05-10T01:41:31;6.01;47.26
72202;SHT30;60105;54.956;73.412;2023-05-10T01:48:23;6.16;47.96
72202;SHT30;60105;54.956;73.412;2023-05-10T01:51:27;6.12;46.37
72202;SHT30;60105;54.956;73.412;2023-05-10T01:54:30;6.18;47.23
72202;SHT30;60105;54.956;73.412;2023-05-10T01:57:35;6.23;46.92
72202;SHT30;60105;54.956;73.412;2023-05-10T02:00:40;6.18;47.55
72202;SHT30;60105;54.956;73.412;2023-05-10T02:03:43;6.33;46.36
72202;SHT30;60105;54.956;73.412;2023-05-10T02:06:46;6.37;46.70
72202;SHT30;60105;54.956;73.412;2023-05-10T02:09:49;6.44;45.91
72202;SHT30;60105;54.956;73.412;2023-05-10T02:13:23;6.47;45.60
72202;SHT30;60105;54.956;73.412;2023-05-10T02:16:26;6.50;46.00
72202;SHT30;60105;54.956;73.412;2023-05-10T02:19:28;6.57;46.06
72202;SHT30;60105;54.956;73.412;2023-05-10T02:23:21;6.74;45.53
72202;SHT30;60105;54.956;73.412;2023-05-10T02:26:25;6.94;45.67
72202;SHT30;60105;54.956;73.412;2023-05-10T02:29:27;7.08;45.35
72202;SHT30;60105;54.956;73.412;2023-05-10T02:32:29;7.14;44.91
72202;SHT30;60105;54.956;73.412;2023-05-10T02:35:32;7.14;47.01
72202;SHT30;60105;54.956;73.412;2023-05-10T02:38:35;7.30;45.93
72202;SHT30;60105;54.956;73.412;2023-05-10T02:41:38;7.32;44.76
72202;SHT30;60105;54.956;73.412;2023-05-10T02:44:43;7.43;44.29
72202;SHT30;60105;54.956;73.412;2023-05-10T02:48:21;7.59;43.75
72202;SHT30;60105;54.956;73.412;2023-05-10T02:51:25;7.70;45.18
72202;SHT30;60105;54.956;73.412;2023-05-10T02:54:32;7.81;43.36
72202;SHT30;60105;54.956;73.412;2023-05-10T02:57:35;7.86;43.45
72202;SHT30;60105;54.956;73.412;2023-05-10T03:00:39;7.95;43.31
72202;SHT30;60105;54.956;73.412;2023-05-10T03:03:42;8.08;42.25
72202;SHT30;60105;54.956;73.412;2023-05-10T03:06:43;8.09;41.98
72202;SHT30;60105;54.956;73.412;2023-05-10T03:09:45;8.24;42.55
72202;SHT30;60105;54.956;73.412;2023-05-10T03:13:39;8.39;41.28
72202;SHT30;60105;54.956;73.412;2023-05-10T03:16:46;8.32;40.93
72202;SHT30;60105;54.956;73.412;2023-05-10T03:19:55;8.36;40.39
72202;SHT30;60105;54.956;73.412;2023-05-10T03:23:35;8.44;41.42
72202;SHT30;60105;54.956;73.412;2023-05-10T03:26:43;8.50;40.69
72202;SHT30;60105;54.956;73.412;2023-05-10T03:29:50;8.60;38.23
72202;SHT30;60105;54.956;73.412;2023-05-10T03:33:21;8.69;38.87
72202;SHT30;60105;54.956;73.412;2023-05-10T03:36:22;8.73;37.51
72202;SHT30;60105;54.956;73.412;2023-05-10T03:39:24;8.81;36.89
72202;SHT30;60105;54.956;73.412;2023-05-10T03:42:31;8.97;35.99
72202;SHT30;60105;54.956;73.412;2023-05-10T03:45:32;9.03;35.73
72202;SHT30;60105;54.956;73.412;2023-05-10T03:48:34;9.08;35.44
72202;SHT30;60105;54.956;73.412;2023-05-10T03:51:35;9.10;35.63
72202;SHT30;60105;54.956;73.412;2023-05-10T03:54:36;9.23;34.33
72202;SHT30;60105;54.956;73.412;2023-05-10T03:58:21;9.38;34.19
72202;SHT30;60105;54.956;73.412;2023-05-10T04:01:23;9.51;34.17
72202;SHT30;60105;54.956;73.412;2023-05-10T04:04:24;9.52;33.83
72202;SHT30;60105;54.956;73.412;2023-05-10T04:07:25;9.55;33.97
72202;SHT30;60105;54.956;73.412;2023-05-10T04:10:26;9.62;33.00
72202;SHT30;60105;54.956;73.412;2023-05-10T04:13:28;9.71;33.69
72202;SHT30;60105;54.956;73.412;2023-05-10T04:16:29;9.87;32.80
72202;SHT30;60105;54.956;73.412;2023-05-10T04:19:31;9.93;32.56
72202;SHT30;60105;54.956;73.412;2023-05-10T04:22:32;10.03;34.71
72202;SHT30;60105;54.956;73.412;2023-05-10T04:25:34;10.14;33.85
72202;SHT30;60105;54.956;73.412;2023-05-10T04:28:36;10.16;31.42
72202;SHT30;60105;54.956;73.412;2023-05-10T04:31:37;10.00;32.31
72202;SHT30;60105;54.956;73.412;2023-05-10T04:34:38;10.14;32.45
72202;SHT30;60105;54.956;73.412;2023-05-10T04:37:49;10.23;32.40
72202;SHT30;60105;54.956;73.412;2023-05-10T04:40:51;10.33;31.81
72202;SHT30;60105;54.956;73.412;2023-05-10T04:43:52;10.27;31.25
72202;SHT30;60105;54.956;73.412;2023-05-10T04:46:54;10.50;31.32
72202;SHT30;60105;54.956;73.412;2023-05-10T04:49:55;10.54;32.18
72202;SHT30;60105;54.956;73.412;2023-05-10T04:53:21;10.52;30.25
72202;SHT30;60105;54.956;73.412;2023-05-10T04:56:22;10.60;31.01
72202;SHT30;60105;54.956;73.412;2023-05-10T04:59:23;10.65;31.37
72202;SHT30;60105;54.956;73.412;2023-05-10T05:02:24;10.75;29.66
72202;SHT30;60105;54.956;73.412;2023-05-10T05:05:26;10.79;29.44
72202;SHT30;60105;54.956;73.412;2023-05-10T05:08:27;10.93;29.40
72202;SHT30;60105;54.956;73.412;2023-05-10T05:11:28;11.08;28.56
72202;SHT30;60105;54.956;73.412;2023-05-10T05:14:29;11.09;30.40
72202;SHT30;60105;54.956;73.412;2023-05-10T05:17:30;11.23;30.09
72202;SHT30;60105;54.956;73.412;2023-05-10T05:20:35;11.39;30.99
72202;SHT30;60105;54.956;73.412;2023-05-10T05:23:36;11.34;29.46
72202;SHT30;60105;54.956;73.412;2023-05-10T05:26:38;11.37;29.49
72202;SHT30;60105;54.956;73.412;2023-05-10T05:29:39;11.50;29.32
72202;SHT30;60105;54.956;73.412;2023-05-10T05:33:21;11.44;29.14
72202;SHT30;60105;54.956;73.412;2023-05-10T05:36:22;11.46;28.79
72202;SHT30;60105;54.956;73.412;2023-05-10T05:39:23;11.57;28.52
72202;SHT30;60105;54.956;73.412;2023-05-10T05:42:24;11.60;28.59
72202;SHT30;60105;54.956;73.412;2023-05-10T05:45:26;11.61;28.41
72202;SHT30;60105;54.956;73.412;2023-05-10T05:48:29;11.61;28.68
72202;SHT30;60105;54.956;73.412;2023-05-10T05:51:30;11.71;29.21
72202;SHT30;60105;54.956;73.412;2023-05-10T05:54:32;11.99;30.01
72202;SHT30;60105;54.956;73.412;2023-05-10T05:57:33;12.18;29.85
72202;SHT30;60105;54.956;73.412;2023-05-10T06:00:34;12.08;28.39
72202;SHT30;60105;54.956;73.412;2023-05-10T06:03:36;12.12;28.27
72202;SHT30;60105;54.956;73.412;2023-05-10T06:06:37;12.17;27.76
72202;SHT30;60105;54.956;73.412;2023-05-10T06:09:38;12.26;27.34
72202;SHT30;60105;54.956;73.412;2023-05-10T06:13:21;12.30;27.49
72202;SHT30;60105;54.956;73.412;2023-05-10T06:16:22;12.35;26.97
72202;SHT30;60105;54.956;73.412;2023-05-10T06:19:23;12.35;27.34
72202;SHT30;60105;54.956;73.412;2023-05-10T06:22:25;12.40;27.75
72202;SHT30;60105;54.956;73.412;2023-05-10T06:25:26;12.53;28.08
72202;SHT30;60105;54.956;73.412;2023-05-10T06:28:27;12.67;27.69
72202;SHT30;60105;54.956;73.412;2023-05-10T06:31:28;12.66;27.57
72202;SHT30;60105;54.956;73.412;2023-05-10T06:34:30;12.70;27.86
72202;SHT30;60105;54.956;73.412;2023-05-10T06:37:31;12.90;27.95
72202;SHT30;60105;54.956;73.412;2023-05-10T06:40:33;13.00;26.96
72202;SHT30;60105;54.956;73.412;2023-05-10T06:43:37;12.86;27.61
72202;SHT30;60105;54.956;73.412;2023-05-10T06:46:41;12.90;27.74
72202;SHT30;60105;54.956;73.412;2023-05-10T06:49:43;13.00;28.03
72202;SHT30;60105;54.956;73.412;2023-05-10T06:53:21;13.14;26.94
72202;SHT30;60105;54.956;73.412;2023-05-10T06:56:22;13.12;26.46
72202;SHT30;60105;54.956;73.412;2023-05-10T06:59:23;13.31;27.38
72202;SHT30;60105;54.956;73.412;2023-05-10T07:02:24;13.62;29.11
72202;SHT30;60105;54.956;73.412;2023-05-10T07:05:26;13.89;28.40
72202;SHT30;60105;54.956;73.412;2023-05-10T07:08:30;13.99;27.31
72202;SHT30;60105;54.956;73.412;2023-05-10T07:11:31;14.06;27.44
72202;SHT30;60105;54.956;73.412;2023-05-10T07:14:32;13.91;24.95
72202;SHT30;60105;54.956;73.412;2023-05-10T07:17:33;13.85;25.79
72202;SHT30;60105;54.956;73.412;2023-05-10T07:20:34;13.63;25.91
72202;SHT30;60105;54.956;73.412;2023-05-10T07:23:36;13.66;24.57
72202;SHT30;60105;54.956;73.412;2023-05-10T07:26:37;13.75;24.73
72202;SHT30;60105;54.956;73.412;2023-05-10T07:29:38;13.69;24.73
72202;SHT30;60105;54.956;73.412;2023-05-10T07:33:21;13.82;24.47
72202;SHT30;60105;54.956;73.412;2023-05-10T07:36:22;14.09;27.10
72202;SHT30;60105;54.956;73.412;2023-05-10T07:39:26;14.41;26.80
72202;SHT30;60105;54.956;73.412;2023-05-10T07:42:28;14.64;25.93
72202;SHT30;60105;54.956;73.412;2023-05-10T07:45:29;14.55;24.60
72202;SHT30;60105;54.956;73.412;2023-05-10T07:48:30;14.58;25.35
72202;SHT30;60105;54.956;73.412;2023-05-10T07:51:32;14.71;25.49
72202;SHT30;60105;54.956;73.412;2023-05-10T07:54:33;14.91;25.60
72202;SHT30;60105;54.956;73.412;2023-05-10T07:57:34;15.27;25.43
72202;SHT30;60105;54.956;73.412;2023-05-10T08:00:36;15.23;24.98
72202;SHT30;60105;54.956;73.412;2023-05-10T08:03:40;14.95;24.78
72202;SHT30;60105;54.956;73.412;2023-05-10T08:06:41;14.83;23.69
72202;SHT30;60105;54.956;73.412;2023-05-10T08:09:43;14.61;24.28
72202;SHT30;60105;54.956;73.412;2023-05-10T08:13:20;14.69;24.36
72202;SHT30;60105;54.956;73.412;2023-05-10T08:16:22;14.79;25.49
72202;SHT30;60105;54.956;73.412;2023-05-10T08:19:23;14.95;25.30
72202;SHT30;60105;54.956;73.412;2023-05-10T08:22:24;15.29;24.65
72202;SHT30;60105;54.956;73.412;2023-05-10T08:25:26;15.26;23.48
72202;SHT30;60105;54.956;73.412;2023-05-10T08:28:27;15.24;24.79
72202;SHT30;60105;54.956;73.412;2023-05-10T08:31:28;15.53;23.59
72202;SHT30;60105;54.956;73.412;2023-05-10T08:34:29;15.40;22.60
72202;SHT30;60105;54.956;73.412;2023-05-10T08:37:32;15.67;23.04
72202;SHT30;60105;54.956;73.412;2023-05-10T08:40:42;15.81;22.28
72202;SHT30;60105;54.956;73.412;2023-05-10T08:43:44;16.15;23.24
72202;SHT30;60105;54.956;73.412;2023-05-10T08:46:48;16.48;23.77
72202;SHT30;60105;54.956;73.412;2023-05-10T08:49:52;16.55;21.75
72202;SHT30;60105;54.956;73.412;2023-05-10T08:53:22;16.71;22.34
72202;SHT30;60105;54.956;73.412;2023-05-10T08:56:26;16.80;21.80
72202;SHT30;60105;54.956;73.412;2023-05-10T08:59:27;16.63;22.28
72202;SHT30;60105;54.956;73.412;2023-05-10T09:02:28;16.26;20.87
72202;SHT30;60105;54.956;73.412;2023-05-10T09:05:31;16.16;21.12
72202;SHT30;60105;54.956;73.412;2023-05-10T09:08:33;16.12;21.45
72202;SHT30;60105;54.956;73.412;2023-05-10T09:11:34;16.30;22.50
72202;SHT30;60105;54.956;73.412;2023-05-10T09:14:36;16.43;22.75
72202;SHT30;60105;54.956;73.412;2023-05-10T09:18:21;16.55;23.58
72202;SHT30;60105;54.956;73.412;2023-05-10T09:21:22;16.42;22.03
72202;SHT30;60105;54.956;73.412;2023-05-10T09:24:26;16.36;23.13
72202;SHT30;60105;54.956;73.412;2023-05-10T09:27:28;16.40;23.65
72202;SHT30;60105;54.956;73.412;2023-05-10T09:30:30;16.50;21.96
72202;SHT30;60105;54.956;73.412;2023-05-10T09:33:44;16.55;22.71
72202;SHT30;60105;54.956;73.412;2023-05-10T09:36:55;16.66;21.12
72202;SHT30;60105;54.956;73.412;2023-05-10T09:39:57;16.74;21.94
72202;SHT30;60105;54.956;73.412;2023-05-10T09:43:20;16.94;22.50
72202;SHT30;60105;54.956;73.412;2023-05-10T09:46:22;16.97;21.44
72202;SHT30;60105;54.956;73.412;2023-05-10T09:49:23;17.00;22.03
72202;SHT30;60105;54.956;73.412;2023-05-10T09:52:24;16.98;21.19
72202;SHT30;60105;54.956;73.412;2023-05-10T09:58:41;17.28;21.64
72202;SHT30;60105;54.956;73.412;2023-05-10T10:01:49;17.21;22.56
72202;SHT30;60105;54.956;73.412;2023-05-10T10:04:52;17.34;21.95
72202;SHT30;60105;54.956;73.412;2023-05-10T10:07:54;17.15;22.42
72202;SHT30;60105;54.956;73.412;2023-05-10T10:10:56;16.97;21.69
72202;SHT30;60105;54.956;73.412;2023-05-10T10:13:58;16.91;22.13
72202;SHT30;60105;54.956;73.412;2023-05-10T10:17:00;17.03;21.92
72202;SHT30;60105;54.956;73.412;2023-05-10T10:20:03;17.12;21.62
72202;SHT30;60105;54.956;73.412;2023-05-10T10:23:20;17.17;22.51
72202;SHT30;60105;54.956;73.412;2023-05-10T10:26:22;17.35;23.98
72202;SHT30;60105;54.956;73.412;2023-05-10T10:29:52;17.40;22.74
72202;SHT30;60105;54.956;73.412;2023-05-10T10:33:29;17.28;21.06
72202;SHT30;60105;54.956;73.412;2023-05-10T10:36:33;17.17;20.80
72202;SHT30;60105;54.956;73.412;2023-05-10T10:39:34;17.07;20.97
72202;SHT30;60105;54.956;73.412;2023-05-10T10:43:27;17.06;23.05
72202;SHT30;60105;54.956;73.412;2023-05-10T10:46:29;17.15;22.71
72202;SHT30;60105;54.956;73.412;2023-05-10T10:50:01;17.25;22.55
72202;SHT30;60105;54.956;73.412;2023-05-10T10:53:21;17.27;23.24
72202;SHT30;60105;54.956;73.412;2023-05-10T10:56:22;17.17;22.00
72202;SHT30;60105;54.956;73.412;2023-05-10T10:59:28;17.27;23.23
72202;SHT30;60105;54.956;73.412;2023-05-10T11:02:43;17.36;24.13
72202;SHT30;60105;54.956;73.412;2023-05-10T11:05:50;17.31;23.13
72202;SHT30;60105;54.956;73.412;2023-05-10T11:09:14;17.28;22.35
72202;SHT30;60105;54.956;73.412;2023-05-10T11:12:16;17.19;22.26
72202;SHT30;60105;54.956;73.412;2023-05-10T11:15:17;17.04;22.49
72202;SHT30;60105;54.956;73.412;2023-05-10T11:18:23;17.00;22.06
72202;SHT30;60105;54.956;73.412;2023-05-10T11:21:24;17.08;24.30
72202;SHT30;60105;54.956;73.412;2023-05-10T11:24:27;17.12;23.42
72202;SHT30;60105;54.956;73.412;2023-05-10T11:27:28;17.11;22.46
72202;SHT30;60105;54.956;73.412;2023-05-10T11:30:30;17.11;23.19
72202;SHT30;60105;54.956;73.412;2023-05-10T11:33:44;17.00;22.27
72202;SHT30;60105;54.956;73.412;2023-05-10T11:36:51;16.85;23.08
72202;SHT30;60105;54.956;73.412;2023-05-10T11:39:54;16.66;22.12
72202;SHT30;60105;54.956;73.412;2023-05-10T11:43:23;16.74;20.75
72202;SHT30;60105;54.956;73.412;2023-05-10T11:46:27;16.73;22.26
72202;SHT30;60105;54.956;73.412;2023-05-10T11:49:29;16.67;22.30
72202;SHT30;60105;54.956;73.412;2023-05-10T11:52:35;16.76;24.27
72202;SHT30;60105;54.956;73.412;2023-05-10T11:55:38;16.79;22.59
72202;SHT30;60105;54.956;73.412;2023-05-10T11:58:39;16.80;22.30
72202;SHT30;60105;54.956;73.412;2023-05-10T12:01:41;16.73;22.13
72202;SHT30;60105;54.956;73.412;2023-05-10T12:04:42;16.73;23.63
72202;SHT30;60105;54.956;73.412;2023-05-10T12:07:49;16.67;22.97
72202;SHT30;60105;54.956;73.412;2023-05-10T12:10:51;16.74;22.14
72202;SHT30;60105;54.956;73.412;2023-05-10T12:13:53;16.67;22.67
72202;SHT30;60105;54.956;73.412;2023-05-10T12:16:57;16.57;20.42
72202;SHT30;60105;54.956;73.412;2023-05-10T12:20:20;16.49;21.43
72202;SHT30;60105;54.956;73.412;2023-05-10T12:23:22;16.53;22.18
72202;SHT30;60105;54.956;73.412;2023-05-10T12:26:27;16.40;23.64
72202;SHT30;60105;54.956;73.412;2023-05-10T12:29:30;16.34;20.84
72202;SHT30;60105;54.956;73.412;2023-05-10T12:32:41;16.26;21.88
72202;SHT30;60105;54.956;73.412;2023-05-10T12:35:48;16.21;21.76
72202;SHT30;60105;54.956;73.412;2023-05-10T12:38:51;16.16;23.06
72202;SHT30;60105;54.956;73.412;2023-05-10T12:41:53;16.12;22.26
72202;SHT30;60105;54.956;73.412;2023-05-10T12:44:57;16.09;22.00
72202;SHT30;60105;54.956;73.412;2023-05-10T12:48:20;15.97;23.19
72202;SHT30;60105;54.956;73.412;2023-05-10T12:51:22;15.87;21.80
72202;SHT30;60105;54.956;73.412;2023-05-10T12:54:23;15.90;23.27
72202;SHT30;60105;54.956;73.412;2023-05-10T12:57:25;15.87;23.17
72202;SHT30;60105;54.956;73.412;2023-05-10T13:00:26;15.81;22.20
72202;SHT30;60105;54.956;73.412;2023-05-10T13:03:27;15.72;22.05
72202;SHT30;60105;54.956;73.412;2023-05-10T13:06:29;15.70;23.58
72202;SHT30;60105;54.956;73.412;2023-05-10T13:09:30;15.64;23.14
72202;SHT30;60105;54.956;73.412;2023-05-10T13:12:31;15.61;23.70
72202;SHT30;60105;54.956;73.412;2023-05-10T13:15:33;15.61;22.71
72202;SHT30;60105;54.956;73.412;2023-05-10T13:18:34;15.50;23.18
72202;SHT30;60105;54.956;73.412;2023-05-10T13:21:35;15.54;22.73
72202;SHT30;60105;54.956;73.412;2023-05-10T13:24:36;15.51;22.83
72202;SHT30;60105;54.956;73.412;2023-05-10T13:28:21;15.49;23.33
72202;SHT30;60105;54.956;73.412;2023-05-10T13:31:22;15.49;23.16
72202;SHT30;60105;54.956;73.412;2023-05-10T13:34:23;15.41;23.10
72202;SHT30;60105;54.956;73.412;2023-05-10T13:37:25;15.40;22.74
72202;SHT30;60105;54.956;73.412;2023-05-10T13:40:26;15.37;23.68
72202;SHT30;60105;54.956;73.412;2023-05-10T13:43:30;15.30;23.84
72202;SHT30;60105;54.956;73.412;2023-05-10T13:46:31;15.26;23.01
72202;SHT30;60105;54.956;73.412;2023-05-10T13:49:32;15.27;23.00
72202;SHT30;60105;54.956;73.412;2023-05-10T13:52:35;15.26;23.13
72202;SHT30;60105;54.956;73.412;2023-05-10T13:55:36;15.22;23.77
72202;SHT30;60105;54.956;73.412;2023-05-10T13:58:39;15.18;23.39
72202;SHT30;60105;54.956;73.412;2023-05-10T14:01:40;15.18;23.91
72202;SHT30;60105;54.956;73.412;2023-05-10T14:04:42;15.16;23.54
72202;SHT30;60105;54.956;73.412;2023-05-10T14:07:50;15.12;23.32
72202;SHT30;60105;54.956;73.412;2023-05-10T14:10:51;15.14;23.37
72202;SHT30;60105;54.956;73.412;2023-05-10T14:13:54;15.10;23.14
72202;SHT30;60105;54.956;73.412;2023-05-10T14:16:55;15.10;23.61
72202;SHT30;60105;54.956;73.412;2023-05-10T14:19:56;14.99;23.38
72202;SHT30;60105;54.956;73.412;2023-05-10T14:23:21;14.99;23.03
72202;SHT30;60105;54.956;73.412;2023-05-10T14:26:25;15.02;23.24
72202;SHT30;60105;54.956;73.412;2023-05-10T14:29:27;14.98;23.51
72202;SHT30;60105;54.956;73.412;2023-05-10T14:32:28;14.95;26.59
72202;SHT30;60105;54.956;73.412;2023-05-10T14:35:29;14.92;23.75
72202;SHT30;60105;54.956;73.412;2023-05-10T14:38:32;14.91;23.97
72202;SHT30;60105;54.956;73.412;2023-05-10T14:41:33;14.83;24.31
72202;SHT30;60105;54.956;73.412;2023-05-10T14:44:35;14.83;23.99
72202;SHT30;60105;54.956;73.412;2023-05-10T14:47:36;14.76;24.05
72202;SHT30;60105;54.956;73.412;2023-05-10T14:50:37;14.78;24.70
72202;SHT30;60105;54.956;73.412;2023-05-10T14:53:39;14.74;25.05
72202;SHT30;60105;54.956;73.412;2023-05-10T14:56:41;14.72;25.40
72202;SHT30;60105;54.956;73.412;2023-05-10T14:59:42;14.68;24.59
72202;SHT30;60105;54.956;73.412;2023-05-10T15:03:21;14.72;25.02
72202;SHT30;60105;54.956;73.412;2023-05-10T15:06:31;14.72;25.09
72202;SHT30;60105;54.956;73.412;2023-05-10T15:09:32;14.69;26.12
72202;SHT30;60105;54.956;73.412;2023-05-10T15:12:33;14.69;26.44
72202;SHT30;60105;54.956;73.412;2023-05-10T15:15:35;14.65;26.03
72202;SHT30;60105;54.956;73.412;2023-05-10T15:18:37;14.60;26.13
72202;SHT30;60105;54.956;73.412;2023-05-10T15:21:38;14.60;26.91
72202;SHT30;60105;54.956;73.412;2023-05-10T15:24:39;14.58;26.81
72202;SHT30;60105;54.956;73.412;2023-05-10T15:28:21;14.55;26.53
72202;SHT30;60105;54.956;73.412;2023-05-10T15:31:23;14.52;27.88
72202;SHT30;60105;54.956;73.412;2023-05-10T15:34:24;14.52;26.64
72202;SHT30;60105;54.956;73.412;2023-05-10T15:37:26;14.48;26.31
72202;SHT30;60105;54.956;73.412;2023-05-10T15:40:28;14.54;26.53
72202;SHT30;60105;54.956;73.412;2023-05-10T15:43:31;14.48;26.05
72202;SHT30;60105;54.956;73.412;2023-05-10T15:46:32;14.49;25.87
72202;SHT30;60105;54.956;73.412;2023-05-10T15:49:34;14.51;26.38
72202;SHT30;60105;54.956;73.412;2023-05-10T15:52:35;14.51;25.54
72202;SHT30;60105;54.956;73.412;2023-05-10T15:55:37;14.51;26.30
72202;SHT30;60105;54.956;73.412;2023-05-10T15:58:39;14.52;26.10
72202;SHT30;60105;54.956;73.412;2023-05-10T16:01:40;14.51;25.83
72202;SHT30;60105;54.956;73.412;2023-05-10T16:04:41;14.52;26.26
72202;SHT30;60105;54.956;73.412;2023-05-10T16:07:49;14.49;26.32
72202;SHT30;60105;54.956;73.412;2023-05-10T16:10:50;14.45;26.08
72202;SHT30;60105;54.956;73.412;2023-05-10T16:13:51;14.48;26.02
72202;SHT30;60105;54.956;73.412;2023-05-10T16:16:54;14.49;25.73
72202;SHT30;60105;54.956;73.412;2023-05-10T16:19:56;14.51;26.07
72202;SHT30;60105;54.956;73.412;2023-05-10T16:23:20;14.49;25.79
72202;SHT30;60105;54.956;73.412;2023-05-10T16:26:22;14.52;26.23
72202;SHT30;60105;54.956;73.412;2023-05-10T16:29:23;14.52;26.55
72202;SHT30;60105;54.956;73.412;2023-05-10T16:32:25;14.48;26.60
72202;SHT30;60105;54.956;73.412;2023-05-10T16:35:26;14.45;27.76
72202;SHT30;60105;54.956;73.412;2023-05-10T16:38:29;14.45;26.49
72202;SHT30;60105;54.956;73.412;2023-05-10T16:41:34;14.46;26.95
72202;SHT30;60105;54.956;73.412;2023-05-10T16:44:35;14.37;28.41
72202;SHT30;60105;54.956;73.412;2023-05-10T16:48:20;14.24;29.53
72202;SHT30;60105;54.956;73.412;2023-05-10T16:51:22;14.18;29.02
72202;SHT30;60105;54.956;73.412;2023-05-10T16:54:23;14.20;28.71
72202;SHT30;60105;54.956;73.412;2023-05-10T16:57:25;14.25;28.87
72202;SHT30;60105;54.956;73.412;2023-05-10T17:00:26;14.25;29.49
72202;SHT30;60105;54.956;73.412;2023-05-10T17:03:27;14.14;31.98
72202;SHT30;60105;54.956;73.412;2023-05-10T17:06:28;14.07;32.68
72202;SHT30;60105;54.956;73.412;2023-05-10T17:09:30;13.99;32.90
72202;SHT30;60105;54.956;73.412;2023-05-10T17:12:31;13.89;33.59
72202;SHT30;60105;54.956;73.412;2023-05-10T17:15:35;13.83;33.38
72202;SHT30;60105;54.956;73.412;2023-05-10T17:18:36;13.79;33.54
72202;SHT30;60105;54.956;73.412;2023-05-10T17:21:37;13.77;33.89
72202;SHT30;60105;54.956;73.412;2023-05-10T17:24:39;13.79;33.67
72202;SHT30;60105;54.956;73.412;2023-05-10T17:28:20;13.66;33.70
72202;SHT30;60105;54.956;73.412;2023-05-10T17:31:23;13.67;33.86
72202;SHT30;60105;54.956;73.412;2023-05-10T17:34:24;13.73;33.71
72202;SHT30;60105;54.956;73.412;2023-05-10T17:37:25;13.72;33.77
72202;SHT30;60105;54.956;73.412;2023-05-10T17:40:26;13.76;33.71
72202;SHT30;60105;54.956;73.412;2023-05-10T17:43:30;13.73;33.86
72202;SHT30;60105;54.956;73.412;2023-05-10T17:46:31;13.65;33.99
72202;SHT30;60105;54.956;73.412;2023-05-10T17:49:33;13.66;34.30
72202;SHT30;60105;54.956;73.412;2023-05-10T17:52:34;13.63;34.18
72202;SHT30;60105;54.956;73.412;2023-05-10T17:55:39;13.62;34.35
72202;SHT30;60105;54.956;73.412;2023-05-10T17:58:42;13.61;34.44
72202;SHT30;60105;54.956;73.412;2023-05-10T18:01:44;13.58;34.51
72202;SHT30;60105;54.956;73.412;2023-05-10T18:04:45;13.59;34.24
72202;SHT30;60105;54.956;73.412;2023-05-10T18:07:49;13.55;34.49
72202;SHT30;60105;54.956;73.412;2023-05-10T18:10:51;13.55;35.60
72202;SHT30;60105;54.956;73.412;2023-05-10T18:13:52;13.59;34.70
72202;SHT30;60105;54.956;73.412;2023-05-10T18:16:54;13.54;34.55
72202;SHT30;60105;54.956;73.412;2023-05-10T18:19:55;13.55;34.39
72202;SHT30;60105;54.956;73.412;2023-05-10T18:23:19;13.56;35.12
72202;SHT30;60105;54.956;73.412;2023-05-10T18:26:20;13.56;37.81
72202;SHT30;60105;54.956;73.412;2023-05-10T18:29:22;13.52;39.18
72202;SHT30;60105;54.956;73.412;2023-05-10T18:32:24;13.39;40.69
72202;SHT30;60105;54.956;73.412;2023-05-10T18:35:25;13.15;39.53
72202;SHT30;60105;54.956;73.412;2023-05-10T18:38:26;13.06;40.29
72202;SHT30;60105;54.956;73.412;2023-05-10T18:41:28;13.14;39.71
72202;SHT30;60105;54.956;73.412;2023-05-10T18:44:29;13.01;42.25
72202;SHT30;60105;54.956;73.412;2023-05-10T18:47:31;12.93;45.61
72202;SHT30;60105;54.956;73.412;2023-05-10T18:50:32;12.80;45.70
72202;SHT30;60105;54.956;73.412;2023-05-10T18:53:34;12.77;44.13
72202;SHT30;60105;54.956;73.412;2023-05-10T18:56:35;12.83;46.06
72202;SHT30;60105;54.956;73.412;2023-05-10T18:59:36;12.80;42.20
72202;SHT30;60105;54.956;73.412;2023-05-10T19:03:20;12.72;44.72
72202;SHT30;60105;54.956;73.412;2023-05-10T19:06:34;12.69;44.83
72202;SHT30;60105;54.956;73.412;2023-05-10T19:09:35;12.69;44.88
72202;SHT30;60105;54.956;73.412;2023-05-10T19:13:20;12.63;45.22
72202;SHT30;60105;54.956;73.412;2023-05-10T19:16:21;12.66;46.20
72202;SHT30;60105;54.956;73.412;2023-05-10T19:19:23;12.64;45.95
72202;SHT30;60105;54.956;73.412;2023-05-10T19:22:24;12.55;47.33
72202;SHT30;60105;54.956;73.412;2023-05-10T19:25:25;12.48;52.53
72202;SHT30;60105;54.956;73.412;2023-05-10T19:28:29;12.26;53.71
72202;SHT30;60105;54.956;73.412;2023-05-10T19:31:30;12.09;52.86
72202;SHT30;60105;54.956;73.412;2023-05-10T19:34:33;11.91;58.11
72202;SHT30;60105;54.956;73.412;2023-05-10T19:37:34;11.91;49.99